sensor_id;sensor_type;location;lat;lon;timestamp;P1;durP1;ratioP1;P2;durP2;ratioP2
81211;SDS011;70686;52.494;13.420;2023-08-06T00:00:59;11.38;;;9.05;;
81211;SDS011;70686;52.494;13.420;2023-08-06T00:03:25;10.75;;;8.13;;
81211;SDS011;70686;52.494;13.420;2023-08-06T00:05:51;11.52;;;8.60;;
81211;SDS011;70686;52.494;13.420;2023-08-06T00:08:17;11.43;;;8.77;;
81211;SDS011;70686;52.494;13.420;2023-08-06T00:10:43;12.68;;;9.20;;
81211;SDS011;70686;52.494;13.420;2023-08-06T00:13:09;12.15;;;9.05;;
81211;SDS011;70686;52.494;13.420;2023-08-06T00:15:35;11.38;;;9.00;;
81211;SDS011;70686;52.494;13.420;2023-08-06T00:18:01;10.70;;;8.40;;
81211;SDS011;70686;52.494;13.420;2023-08-06T00:20:27;12.95;;;9.20;;
81211;SDS011;70686;52.494;13.420;2023-08-06T00:22:53;12.77;;;10.00;;
81211;SDS011;70686;52.494;13.420;2023-08-06T00:25:19;11.38;;;8.60;;
81211;SDS011;70686;52.494;13.420;2023-08-06T00:27:45;12.15;;;9.55;;
81211;SDS011;70686;52.494;13.420;2023-08-06T00:30:11;13.82;;;9.38;;
81211;SDS011;70686;52.494;13.420;2023-08-06T00:32:37;13.38;;;9.20;;
81211;SDS011;70686;52.494;13.420;2023-08-06T00:35:03;13.00;;;10.00;;
81211;SDS011;70686;52.494;13.420;2023-08-06T00:37:29;10.25;;;9.02;;
81211;SDS011;70686;52.494;13.420;2023-08-06T00:39:55;13.13;;;9.15;;
81211;SDS011;70686;52.494;13.420;2023-08-06T00:42:21;11.90;;;8.98;;
81211;SDS011;70686;52.494;13.420;2023-08-06T00:44:47;11.95;;;8.95;;
81211;SDS011;70686;52.494;13.420;2023-08-06T00:47:13;12.40;;;8.95;;
81211;SDS011;70686;52.494;13.420;2023-08-06T00:49:40;11.65;;;8.93;;
81211;SDS011;70686;52.494;13.420;2023-08-06T00:52:06;10.23;;;8.68;;
81211;SDS011;70686;52.494;13.420;2023-08-06T00:54:33;11.82;;;8.82;;
81211;SDS011;70686;52.494;13.420;2023-08-06T00:57:01;11.93;;;9.07;;
81211;SDS011;70686;52.494;13.420;2023-08-06T00:59:28;13.20;;;9.27;;
81211;SDS011;70686;52.494;13.420;2023-08-06T01:01:54;12.80;;;9.15;;
81211;SDS011;70686;52.494;13.420;2023-08-06T01:04:20;9.38;;;8.38;;
81211;SDS011;70686;52.494;13.420;2023-08-06T01:06:47;11.20;;;8.88;;
81211;SDS011;70686;52.494;13.420;2023-08-06T01:14:38;11.30;;;8.05;;
81211;SDS011;70686;52.494;13.420;2023-08-06T01:17:07;12.10;;;8.25;;
81211;SDS011;70686;52.494;13.420;2023-08-06T01:19:33;12.35;;;8.77;;
81211;SDS011;70686;52.494;13.420;2023-08-06T01:21:59;10.02;;;8.57;;
81211;SDS011;70686;52.494;13.420;2023-08-06T01:24:25;11.05;;;8.63;;
81211;SDS011;70686;52.494;13.420;2023-08-06T01:26:55;12.00;;;9.27;;
81211;SDS011;70686;52.494;13.420;2023-08-06T01:29:24;10.55;;;7.82;;
81211;SDS011;70686;52.494;13.420;2023-08-06T01:31:51;10.32;;;8.10;;
81211;SDS011;70686;52.494;13.420;2023-08-06T01:34:22;12.00;;;8.65;;
81211;SDS011;70686;52.494;13.420;2023-08-06T01:36:49;12.23;;;8.25;;
81211;SDS011;70686;52.494;13.420;2023-08-06T01:39:16;10.13;;;8.18;;
81211;SDS011;70686;52.494;13.420;2023-08-06T01:41:45;12.10;;;8.60;;
81211;SDS011;70686;52.494;13.420;2023-08-06T01:44:11;10.48;;;8.55;;
81211;SDS011;70686;52.494;13.420;2023-08-06T01:46:37;11.60;;;8.68;;
81211;SDS011;70686;52.494;13.420;2023-08-06T01:49:03;12.18;;;8.40;;
81211;SDS011;70686;52.494;13.420;2023-08-06T01:51:29;11.68;;;8.40;;
81211;SDS011;70686;52.494;13.420;2023-08-06T01:53:57;11.82;;;8.57;;
81211;SDS011;70686;52.494;13.420;2023-08-06T01:56:23;11.52;;;8.75;;
81211;SDS011;70686;52.494;13.420;2023-08-06T01:58:49;11.35;;;8.10;;
81211;SDS011;70686;52.494;13.420;2023-08-06T02:01:14;10.50;;;7.95;;
81211;SDS011;70686;52.494;13.420;2023-08-06T02:03:40;10.55;;;8.40;;
81211;SDS011;70686;52.494;13.420;2023-08-06T02:06:07;11.07;;;9.10;;
81211;SDS011;70686;52.494;13.420;2023-08-06T02:08:33;11.75;;;8.38;;
81211;SDS011;70686;52.494;13.420;2023-08-06T02:10:59;13.57;;;9.40;;
81211;SDS011;70686;52.494;13.420;2023-08-06T02:13:25;11.73;;;9.02;;
81211;SDS011;70686;52.494;13.420;2023-08-06T02:15:51;11.13;;;8.55;;
81211;SDS011;70686;52.494;13.420;2023-08-06T02:18:17;11.88;;;8.38;;
81211;SDS011;70686;52.494;13.420;2023-08-06T02:20:43;12.20;;;9.07;;
81211;SDS011;70686;52.494;13.420;2023-08-06T02:23:09;13.27;;;9.00;;
81211;SDS011;70686;52.494;13.420;2023-08-06T02:25:35;12.02;;;9.32;;
81211;SDS011;70686;52.494;13.420;2023-08-06T02:28:01;12.40;;;9.43;;
81211;SDS011;70686;52.494;13.420;2023-08-06T02:30:27;14.13;;;9.70;;
81211;SDS011;70686;52.494;13.420;2023-08-06T02:32:53;13.52;;;9.45;;
81211;SDS011;70686;52.494;13.420;2023-08-06T02:35:19;12.00;;;8.63;;
81211;SDS011;70686;52.494;13.420;2023-08-06T02:37:45;12.80;;;8.63;;
81211;SDS011;70686;52.494;13.420;2023-08-06T02:40:11;11.70;;;9.55;;
81211;SDS011;70686;52.494;13.420;2023-08-06T02:42:37;12.38;;;9.68;;
81211;SDS011;70686;52.494;13.420;2023-08-06T02:45:03;10.52;;;8.25;;
81211;SDS011;70686;52.494;13.420;2023-08-06T02:47:29;11.30;;;8.23;;
81211;SDS011;70686;52.494;13.420;2023-08-06T02:49:56;12.50;;;8.82;;
81211;SDS011;70686;52.494;13.420;2023-08-06T02:52:22;11.68;;;8.50;;
81211;SDS011;70686;52.494;13.420;2023-08-06T02:54:48;11.27;;;8.43;;
81211;SDS011;70686;52.494;13.420;2023-08-06T02:57:14;13.20;;;8.65;;
81211;SDS011;70686;52.494;13.420;2023-08-06T02:59:40;9.80;;;7.32;;
81211;SDS011;70686;52.494;13.420;2023-08-06T03:02:06;11.77;;;7.95;;
81211;SDS011;70686;52.494;13.420;2023-08-06T03:04:32;9.15;;;6.95;;
81211;SDS011;70686;52.494;13.420;2023-08-06T03:06:58;10.05;;;7.70;;
81211;SDS011;70686;52.494;13.420;2023-08-06T03:09:24;9.60;;;7.30;;
81211;SDS011;70686;52.494;13.420;2023-08-06T03:11:50;10.60;;;7.93;;
81211;SDS011;70686;52.494;13.420;2023-08-06T03:14:16;10.70;;;7.38;;
81211;SDS011;70686;52.494;13.420;2023-08-06T03:16:42;9.20;;;7.47;;
81211;SDS011;70686;52.494;13.420;2023-08-06T03:19:08;11.15;;;7.90;;
81211;SDS011;70686;52.494;13.420;2023-08-06T03:21:34;8.90;;;7.15;;
81211;SDS011;70686;52.494;13.420;2023-08-06T03:24:00;9.63;;;6.82;;
81211;SDS011;70686;52.494;13.420;2023-08-06T03:26:26;9.52;;;6.97;;
81211;SDS011;70686;52.494;13.420;2023-08-06T03:28:52;9.85;;;7.30;;
81211;SDS011;70686;52.494;13.420;2023-08-06T03:31:18;8.73;;;7.10;;
81211;SDS011;70686;52.494;13.420;2023-08-06T03:33:44;9.10;;;6.38;;
81211;SDS011;70686;52.494;13.420;2023-08-06T03:36:10;10.05;;;7.65;;
81211;SDS011;70686;52.494;13.420;2023-08-06T03:38:36;9.23;;;6.82;;
81211;SDS011;70686;52.494;13.420;2023-08-06T03:41:02;8.85;;;6.70;;
81211;SDS011;70686;52.494;13.420;2023-08-06T03:43:27;9.02;;;6.53;;
81211;SDS011;70686;52.494;13.420;2023-08-06T03:45:53;9.13;;;6.72;;
81211;SDS011;70686;52.494;13.420;2023-08-06T03:48:19;9.50;;;6.68;;
81211;SDS011;70686;52.494;13.420;2023-08-06T03:50:45;8.82;;;6.95;;
81211;SDS011;70686;52.494;13.420;2023-08-06T03:53:11;9.57;;;6.82;;
81211;SDS011;70686;52.494;13.420;2023-08-06T03:55:37;9.15;;;7.03;;
81211;SDS011;70686;52.494;13.420;2023-08-06T03:58:04;9.88;;;7.50;;
81211;SDS011;70686;52.494;13.420;2023-08-06T04:00:29;9.45;;;7.20;;
81211;SDS011;70686;52.494;13.420;2023-08-06T04:02:55;10.23;;;7.35;;
81211;SDS011;70686;52.494;13.420;2023-08-06T04:05:21;8.38;;;6.43;;
81211;SDS011;70686;52.494;13.420;2023-08-06T04:07:47;11.73;;;7.50;;
81211;SDS011;70686;52.494;13.420;2023-08-06T04:10:13;10.40;;;7.43;;
81211;SDS011;70686;52.494;13.420;2023-08-06T04:12:39;10.52;;;7.13;;
81211;SDS011;70686;52.494;13.420;2023-08-06T04:15:06;9.93;;;7.03;;
81211;SDS011;70686;52.494;13.420;2023-08-06T04:17:32;8.30;;;6.47;;
81211;SDS011;70686;52.494;13.420;2023-08-06T04:19:58;10.23;;;7.13;;
81211;SDS011;70686;52.494;13.420;2023-08-06T04:22:24;9.95;;;7.03;;
81211;SDS011;70686;52.494;13.420;2023-08-06T04:24:50;9.43;;;7.40;;
81211;SDS011;70686;52.494;13.420;2023-08-06T04:27:17;10.32;;;7.38;;
81211;SDS011;70686;52.494;13.420;2023-08-06T04:29:43;12.50;;;7.60;;
81211;SDS011;70686;52.494;13.420;2023-08-06T04:32:09;11.00;;;7.30;;
81211;SDS011;70686;52.494;13.420;2023-08-06T04:34:36;8.93;;;6.57;;
81211;SDS011;70686;52.494;13.420;2023-08-06T04:37:02;9.10;;;7.03;;
81211;SDS011;70686;52.494;13.420;2023-08-06T04:39:29;10.60;;;7.03;;
81211;SDS011;70686;52.494;13.420;2023-08-06T04:41:55;9.52;;;7.43;;
81211;SDS011;70686;52.494;13.420;2023-08-06T04:44:24;9.75;;;6.97;;
81211;SDS011;70686;52.494;13.420;2023-08-06T04:46:51;9.77;;;7.68;;
81211;SDS011;70686;52.494;13.420;2023-08-06T04:49:17;11.38;;;7.63;;
81211;SDS011;70686;52.494;13.420;2023-08-06T04:51:43;11.98;;;7.70;;
81211;SDS011;70686;52.494;13.420;2023-08-06T04:54:09;8.73;;;6.53;;
81211;SDS011;70686;52.494;13.420;2023-08-06T04:56:35;10.70;;;7.38;;
81211;SDS011;70686;52.494;13.420;2023-08-06T04:59:01;9.32;;;7.10;;
81211;SDS011;70686;52.494;13.420;2023-08-06T05:01:27;10.65;;;6.95;;
81211;SDS011;70686;52.494;13.420;2023-08-06T05:03:53;9.65;;;6.72;;
81211;SDS011;70686;52.494;13.420;2023-08-06T05:06:20;11.18;;;7.20;;
81211;SDS011;70686;52.494;13.420;2023-08-06T05:08:46;11.20;;;7.38;;
81211;SDS011;70686;52.494;13.420;2023-08-06T05:11:11;9.85;;;7.18;;
81211;SDS011;70686;52.494;13.420;2023-08-06T05:13:37;9.57;;;7.57;;
81211;SDS011;70686;52.494;13.420;2023-08-06T05:16:03;9.05;;;6.78;;
81211;SDS011;70686;52.494;13.420;2023-08-06T05:18:29;9.82;;;6.63;;
81211;SDS011;70686;52.494;13.420;2023-08-06T05:20:55;9.30;;;6.55;;
81211;SDS011;70686;52.494;13.420;2023-08-06T05:23:22;9.20;;;6.85;;
81211;SDS011;70686;52.494;13.420;2023-08-06T05:25:48;10.45;;;6.30;;
81211;SDS011;70686;52.494;13.420;2023-08-06T05:28:14;9.02;;;6.43;;
81211;SDS011;70686;52.494;13.420;2023-08-06T05:30:40;8.82;;;6.50;;
81211;SDS011;70686;52.494;13.420;2023-08-06T05:33:06;9.32;;;6.85;;
81211;SDS011;70686;52.494;13.420;2023-08-06T05:35:32;8.45;;;6.13;;
81211;SDS011;70686;52.494;13.420;2023-08-06T05:37:58;9.30;;;6.50;;
81211;SDS011;70686;52.494;13.420;2023-08-06T05:40:24;8.40;;;6.30;;
81211;SDS011;70686;52.494;13.420;2023-08-06T05:42:51;9.73;;;6.40;;
81211;SDS011;70686;52.494;13.420;2023-08-06T05:45:17;8.30;;;5.95;;
81211;SDS011;70686;52.494;13.420;2023-08-06T05:47:43;8.90;;;6.18;;
81211;SDS011;70686;52.494;13.420;2023-08-06T05:50:09;10.63;;;7.03;;
81211;SDS011;70686;52.494;13.420;2023-08-06T05:52:36;8.35;;;6.47;;
81211;SDS011;70686;52.494;13.420;2023-08-06T05:55:02;8.98;;;6.10;;
81211;SDS011;70686;52.494;13.420;2023-08-06T05:57:28;6.85;;;5.63;;
81211;SDS011;70686;52.494;13.420;2023-08-06T05:59:54;8.13;;;5.80;;
81211;SDS011;70686;52.494;13.420;2023-08-06T06:02:20;6.05;;;5.30;;
81211;SDS011;70686;52.494;13.420;2023-08-06T06:04:46;8.18;;;6.18;;
81211;SDS011;70686;52.494;13.420;2023-08-06T06:07:12;7.70;;;5.68;;
81211;SDS011;70686;52.494;13.420;2023-08-06T06:09:39;7.22;;;5.88;;
81211;SDS011;70686;52.494;13.420;2023-08-06T06:12:05;8.23;;;6.05;;
81211;SDS011;70686;52.494;13.420;2023-08-06T06:14:31;9.40;;;6.90;;
81211;SDS011;70686;52.494;13.420;2023-08-06T06:16:58;8.07;;;6.50;;
81211;SDS011;70686;52.494;13.420;2023-08-06T06:19:25;8.75;;;6.53;;
81211;SDS011;70686;52.494;13.420;2023-08-06T06:21:51;9.13;;;6.00;;
81211;SDS011;70686;52.494;13.420;2023-08-06T06:24:18;7.72;;;6.28;;
81211;SDS011;70686;52.494;13.420;2023-08-06T06:26:43;9.25;;;7.20;;
81211;SDS011;70686;52.494;13.420;2023-08-06T06:29:09;9.95;;;7.50;;
81211;SDS011;70686;52.494;13.420;2023-08-06T06:31:35;9.88;;;7.20;;
81211;SDS011;70686;52.494;13.420;2023-08-06T06:34:01;8.88;;;6.97;;
81211;SDS011;70686;52.494;13.420;2023-08-06T06:36:27;9.32;;;7.20;;
81211;SDS011;70686;52.494;13.420;2023-08-06T06:38:53;10.55;;;8.00;;
81211;SDS011;70686;52.494;13.420;2023-08-06T06:41:19;12.10;;;8.85;;
81211;SDS011;70686;52.494;13.420;2023-08-06T06:43:45;11.88;;;8.40;;
81211;SDS011;70686;52.494;13.420;2023-08-06T06:46:11;11.65;;;8.10;;
81211;SDS011;70686;52.494;13.420;2023-08-06T06:48:37;12.90;;;8.20;;
81211;SDS011;70686;52.494;13.420;2023-08-06T06:51:03;12.07;;;8.13;;
81211;SDS011;70686;52.494;13.420;2023-08-06T06:53:29;12.48;;;8.18;;
81211;SDS011;70686;52.494;13.420;2023-08-06T06:55:56;11.38;;;8.38;;
81211;SDS011;70686;52.494;13.420;2023-08-06T06:58:22;11.98;;;8.80;;
81211;SDS011;70686;52.494;13.420;2023-08-06T07:00:48;12.10;;;9.10;;
81211;SDS011;70686;52.494;13.420;2023-08-06T07:03:15;10.40;;;8.88;;
81211;SDS011;70686;52.494;13.420;2023-08-06T07:05:41;11.48;;;9.27;;
81211;SDS011;70686;52.494;13.420;2023-08-06T07:08:08;12.52;;;8.90;;
81211;SDS011;70686;52.494;13.420;2023-08-06T07:10:34;11.40;;;8.00;;
81211;SDS011;70686;52.494;13.420;2023-08-06T07:13:00;11.70;;;7.95;;
81211;SDS011;70686;52.494;13.420;2023-08-06T07:15:26;10.38;;;7.47;;
81211;SDS011;70686;52.494;13.420;2023-08-06T07:17:52;10.95;;;7.85;;
81211;SDS011;70686;52.494;13.420;2023-08-06T07:20:18;9.35;;;7.63;;
81211;SDS011;70686;52.494;13.420;2023-08-06T07:22:44;9.48;;;7.20;;
81211;SDS011;70686;52.494;13.420;2023-08-06T07:25:10;10.57;;;7.97;;
81211;SDS011;70686;52.494;13.420;2023-08-06T07:27:36;10.27;;;8.20;;
81211;SDS011;70686;52.494;13.420;2023-08-06T07:30:02;11.15;;;7.85;;
81211;SDS011;70686;52.494;13.420;2023-08-06T07:32:30;9.25;;;7.72;;
81211;SDS011;70686;52.494;13.420;2023-08-06T07:34:56;8.75;;;7.25;;
81211;SDS011;70686;52.494;13.420;2023-08-06T07:37:25;9.45;;;7.60;;
81211;SDS011;70686;52.494;13.420;2023-08-06T07:39:53;10.15;;;7.32;;
81211;SDS011;70686;52.494;13.420;2023-08-06T07:42:19;9.60;;;7.57;;
81211;SDS011;70686;52.494;13.420;2023-08-06T07:44:50;10.77;;;8.05;;
81211;SDS011;70686;52.494;13.420;2023-08-06T07:47:16;8.52;;;7.45;;
81211;SDS011;70686;52.494;13.420;2023-08-06T07:49:42;10.48;;;8.13;;
81211;SDS011;70686;52.494;13.420;2023-08-06T07:52:08;9.77;;;7.32;;
81211;SDS011;70686;52.494;13.420;2023-08-06T07:54:34;9.60;;;7.65;;
81211;SDS011;70686;52.494;13.420;2023-08-06T07:57:00;10.32;;;7.28;;
81211;SDS011;70686;52.494;13.420;2023-08-06T07:59:26;10.02;;;7.43;;
81211;SDS011;70686;52.494;13.420;2023-08-06T08:01:52;10.40;;;7.70;;
81211;SDS011;70686;52.494;13.420;2023-08-06T08:04:18;9.35;;;7.43;;
81211;SDS011;70686;52.494;13.420;2023-08-06T08:06:44;9.43;;;7.18;;
81211;SDS011;70686;52.494;13.420;2023-08-06T08:09:10;9.88;;;7.43;;
81211;SDS011;70686;52.494;13.420;2023-08-06T08:11:36;8.60;;;6.97;;
81211;SDS011;70686;52.494;13.420;2023-08-06T08:14:02;10.68;;;7.65;;
81211;SDS011;70686;52.494;13.420;2023-08-06T08:16:28;9.85;;;7.40;;
81211;SDS011;70686;52.494;13.420;2023-08-06T08:18:54;11.93;;;7.40;;
81211;SDS011;70686;52.494;13.420;2023-08-06T08:21:20;10.05;;;7.65;;
81211;SDS011;70686;52.494;13.420;2023-08-06T08:23:46;10.90;;;7.80;;
81211;SDS011;70686;52.494;13.420;2023-08-06T08:26:12;9.50;;;7.90;;
81211;SDS011;70686;52.494;13.420;2023-08-06T08:28:38;10.07;;;8.00;;
81211;SDS011;70686;52.494;13.420;2023-08-06T08:31:07;11.15;;;7.80;;
81211;SDS011;70686;52.494;13.420;2023-08-06T08:33:34;12.02;;;8.88;;
81211;SDS011;70686;52.494;13.420;2023-08-06T08:36:00;10.27;;;8.23;;
81211;SDS011;70686;52.494;13.420;2023-08-06T08:38:26;10.40;;;8.35;;
81211;SDS011;70686;52.494;13.420;2023-08-06T08:40:53;11.35;;;8.63;;
81211;SDS011;70686;52.494;13.420;2023-08-06T08:43:23;11.40;;;8.77;;
81211;SDS011;70686;52.494;13.420;2023-08-06T08:45:50;11.95;;;8.93;;
81211;SDS011;70686;52.494;13.420;2023-08-06T08:48:17;13.30;;;9.38;;
81211;SDS011;70686;52.494;13.420;2023-08-06T08:50:47;13.13;;;9.23;;
81211;SDS011;70686;52.494;13.420;2023-08-06T08:53:14;12.98;;;9.20;;
81211;SDS011;70686;52.494;13.420;2023-08-06T08:55:40;11.65;;;8.70;;
81211;SDS011;70686;52.494;13.420;2023-08-06T08:58:06;11.65;;;8.40;;
81211;SDS011;70686;52.494;13.420;2023-08-06T09:00:32;12.18;;;9.75;;
81211;SDS011;70686;52.494;13.420;2023-08-06T09:02:58;12.20;;;9.73;;
81211;SDS011;70686;52.494;13.420;2023-08-06T09:05:25;13.25;;;9.77;;
81211;SDS011;70686;52.494;13.420;2023-08-06T09:07:52;12.07;;;9.75;;
81211;SDS011;70686;52.494;13.420;2023-08-06T09:10:18;13.00;;;10.45;;
81211;SDS011;70686;52.494;13.420;2023-08-06T09:12:46;13.40;;;10.27;;
81211;SDS011;70686;52.494;13.420;2023-08-06T09:15:12;14.80;;;10.55;;
81211;SDS011;70686;52.494;13.420;2023-08-06T09:17:39;13.00;;;9.90;;
81211;SDS011;70686;52.494;13.420;2023-08-06T09:20:09;15.32;;;10.38;;
81211;SDS011;70686;52.494;13.420;2023-08-06T09:22:38;14.50;;;10.55;;
81211;SDS011;70686;52.494;13.420;2023-08-06T09:25:05;14.32;;;10.30;;
81211;SDS011;70686;52.494;13.420;2023-08-06T09:27:35;13.70;;;10.38;;
81211;SDS011;70686;52.494;13.420;2023-08-06T09:30:02;15.15;;;10.90;;
81211;SDS011;70686;52.494;13.420;2023-08-06T09:32:39;12.40;;;10.07;;
81211;SDS011;70686;52.494;13.420;2023-08-06T09:35:13;15.88;;;10.20;;
81211;SDS011;70686;52.494;13.420;2023-08-06T09:37:41;13.90;;;10.10;;
81211;SDS011;70686;52.494;13.420;2023-08-06T09:42:52;12.13;;;9.15;;
81211;SDS011;70686;52.494;13.420;2023-08-06T09:45:18;14.23;;;10.43;;
81211;SDS011;70686;52.494;13.420;2023-08-06T09:47:44;12.88;;;10.38;;
81211;SDS011;70686;52.494;13.420;2023-08-06T09:50:20;14.70;;;10.73;;
81211;SDS011;70686;52.494;13.420;2023-08-06T09:52:46;13.48;;;10.70;;
81211;SDS011;70686;52.494;13.420;2023-08-06T09:55:15;14.52;;;10.80;;
81211;SDS011;70686;52.494;13.420;2023-08-06T09:57:42;14.65;;;10.70;;
81211;SDS011;70686;52.494;13.420;2023-08-06T10:00:09;15.65;;;11.18;;
81211;SDS011;70686;52.494;13.420;2023-08-06T10:02:37;15.98;;;12.13;;
81211;SDS011;70686;52.494;13.420;2023-08-06T10:05:06;15.40;;;12.05;;
81211;SDS011;70686;52.494;13.420;2023-08-06T10:07:33;16.08;;;11.68;;
81211;SDS011;70686;52.494;13.420;2023-08-06T10:09:59;16.08;;;12.18;;
81211;SDS011;70686;52.494;13.420;2023-08-06T10:12:26;16.05;;;10.90;;
81211;SDS011;70686;52.494;13.420;2023-08-06T10:14:55;14.85;;;11.18;;
81211;SDS011;70686;52.494;13.420;2023-08-06T10:17:21;15.85;;;11.18;;
81211;SDS011;70686;52.494;13.420;2023-08-06T10:19:48;16.95;;;12.63;;
81211;SDS011;70686;52.494;13.420;2023-08-06T10:22:16;19.20;;;12.43;;
81211;SDS011;70686;52.494;13.420;2023-08-06T10:27:34;17.80;;;12.60;;
81211;SDS011;70686;52.494;13.420;2023-08-06T10:32:46;17.90;;;11.95;;
81211;SDS011;70686;52.494;13.420;2023-08-06T10:37:58;11.32;;;8.52;;
81211;SDS011;70686;52.494;13.420;2023-08-06T10:40:24;12.25;;;8.55;;
81211;SDS011;70686;52.494;13.420;2023-08-06T10:42:51;13.00;;;9.35;;
81211;SDS011;70686;52.494;13.420;2023-08-06T10:45:18;14.55;;;10.55;;
81211;SDS011;70686;52.494;13.420;2023-08-06T10:47:45;18.45;;;12.85;;
81211;SDS011;70686;52.494;13.420;2023-08-06T10:50:12;12.32;;;8.93;;
81211;SDS011;70686;52.494;13.420;2023-08-06T10:52:39;11.90;;;8.80;;
81211;SDS011;70686;52.494;13.420;2023-08-06T10:55:07;12.80;;;8.73;;
81211;SDS011;70686;52.494;13.420;2023-08-06T10:57:34;11.65;;;7.38;;
81211;SDS011;70686;52.494;13.420;2023-08-06T11:00:03;10.15;;;8.05;;
81211;SDS011;70686;52.494;13.420;2023-08-06T11:02:29;12.70;;;8.55;;
81211;SDS011;70686;52.494;13.420;2023-08-06T11:05:04;11.95;;;8.95;;
81211;SDS011;70686;52.494;13.420;2023-08-06T11:07:30;12.20;;;9.27;;
81211;SDS011;70686;52.494;13.420;2023-08-06T11:10:05;12.57;;;9.02;;
81211;SDS011;70686;52.494;13.420;2023-08-06T11:12:32;12.93;;;9.30;;
81211;SDS011;70686;52.494;13.420;2023-08-06T11:14:58;13.48;;;10.38;;
81211;SDS011;70686;52.494;13.420;2023-08-06T11:17:25;14.95;;;9.07;;
81211;SDS011;70686;52.494;13.420;2023-08-06T11:19:52;10.52;;;8.35;;
81211;SDS011;70686;52.494;13.420;2023-08-06T11:22:20;13.32;;;10.50;;
81211;SDS011;70686;52.494;13.420;2023-08-06T11:24:46;10.10;;;7.53;;
81211;SDS011;70686;52.494;13.420;2023-08-06T11:27:15;8.40;;;6.68;;
81211;SDS011;70686;52.494;13.420;2023-08-06T11:29:43;8.93;;;6.80;;
81211;SDS011;70686;52.494;13.420;2023-08-06T11:32:09;8.55;;;6.13;;
81211;SDS011;70686;52.494;13.420;2023-08-06T11:34:36;9.18;;;6.97;;
81211;SDS011;70686;52.494;13.420;2023-08-06T11:37:05;9.52;;;6.38;;
81211;SDS011;70686;52.494;13.420;2023-08-06T11:39:34;8.27;;;6.50;;
81211;SDS011;70686;52.494;13.420;2023-08-06T11:42:02;8.90;;;7.18;;
81211;SDS011;70686;52.494;13.420;2023-08-06T11:44:32;9.98;;;7.35;;
81211;SDS011;70686;52.494;13.420;2023-08-06T11:46:58;12.45;;;9.48;;
81211;SDS011;70686;52.494;13.420;2023-08-06T11:49:39;11.27;;;7.95;;
81211;SDS011;70686;52.494;13.420;2023-08-06T11:52:09;9.73;;;7.63;;
81211;SDS011;70686;52.494;13.420;2023-08-06T11:54:45;9.75;;;7.57;;
81211;SDS011;70686;52.494;13.420;2023-08-06T11:57:11;13.00;;;8.40;;
81211;SDS011;70686;52.494;13.420;2023-08-06T11:59:38;11.00;;;8.45;;
81211;SDS011;70686;52.494;13.420;2023-08-06T12:02:05;10.55;;;7.85;;
81211;SDS011;70686;52.494;13.420;2023-08-06T12:04:31;11.07;;;8.23;;
81211;SDS011;70686;52.494;13.420;2023-08-06T12:07:04;10.77;;;7.72;;
81211;SDS011;70686;52.494;13.420;2023-08-06T12:09:32;9.52;;;7.28;;
81211;SDS011;70686;52.494;13.420;2023-08-06T12:11:59;11.00;;;7.88;;
81211;SDS011;70686;52.494;13.420;2023-08-06T12:14:25;9.85;;;8.00;;
81211;SDS011;70686;52.494;13.420;2023-08-06T12:16:51;11.00;;;8.00;;
81211;SDS011;70686;52.494;13.420;2023-08-06T12:19:17;11.02;;;8.50;;
81211;SDS011;70686;52.494;13.420;2023-08-06T12:21:43;11.88;;;8.85;;
81211;SDS011;70686;52.494;13.420;2023-08-06T12:24:09;12.45;;;8.88;;
81211;SDS011;70686;52.494;13.420;2023-08-06T12:26:35;12.02;;;8.70;;
81211;SDS011;70686;52.494;13.420;2023-08-06T12:29:01;12.50;;;9.40;;
81211;SDS011;70686;52.494;13.420;2023-08-06T12:31:27;12.68;;;9.18;;
81211;SDS011;70686;52.494;13.420;2023-08-06T12:33:53;12.50;;;9.10;;
81211;SDS011;70686;52.494;13.420;2023-08-06T12:36:19;12.75;;;9.85;;
81211;SDS011;70686;52.494;13.420;2023-08-06T12:38:45;11.48;;;9.40;;
81211;SDS011;70686;52.494;13.420;2023-08-06T12:41:11;15.13;;;10.27;;
81211;SDS011;70686;52.494;13.420;2023-08-06T12:43:37;13.10;;;9.88;;
81211;SDS011;70686;52.494;13.420;2023-08-06T12:46:03;15.00;;;10.13;;
81211;SDS011;70686;52.494;13.420;2023-08-06T12:48:29;14.38;;;10.35;;
81211;SDS011;70686;52.494;13.420;2023-08-06T12:50:55;13.88;;;10.55;;
81211;SDS011;70686;52.494;13.420;2023-08-06T12:53:21;15.65;;;10.93;;
81211;SDS011;70686;52.494;13.420;2023-08-06T12:55:48;15.10;;;10.32;;
81211;SDS011;70686;52.494;13.420;2023-08-06T12:58:14;13.52;;;9.77;;
81211;SDS011;70686;52.494;13.420;2023-08-06T13:00:40;13.02;;;9.13;;
81211;SDS011;70686;52.494;13.420;2023-08-06T13:03:06;14.85;;;10.13;;
81211;SDS011;70686;52.494;13.420;2023-08-06T13:05:32;13.73;;;10.20;;
81211;SDS011;70686;52.494;13.420;2023-08-06T13:07:58;14.98;;;10.30;;
81211;SDS011;70686;52.494;13.420;2023-08-06T13:10:24;11.50;;;8.63;;
81211;SDS011;70686;52.494;13.420;2023-08-06T13:12:52;12.57;;;9.25;;
81211;SDS011;70686;52.494;13.420;2023-08-06T13:15:18;11.57;;;8.95;;
81211;SDS011;70686;52.494;13.420;2023-08-06T13:17:46;12.82;;;9.52;;
81211;SDS011;70686;52.494;13.420;2023-08-06T13:20:12;13.98;;;9.13;;
81211;SDS011;70686;52.494;13.420;2023-08-06T13:22:37;14.77;;;9.27;;
81211;SDS011;70686;52.494;13.420;2023-08-06T13:25:04;13.02;;;9.60;;
81211;SDS011;70686;52.494;13.420;2023-08-06T13:27:30;12.27;;;8.82;;
81211;SDS011;70686;52.494;13.420;2023-08-06T13:29:56;12.70;;;9.25;;
81211;SDS011;70686;52.494;13.420;2023-08-06T13:32:22;12.80;;;9.52;;
81211;SDS011;70686;52.494;13.420;2023-08-06T13:34:48;13.25;;;10.20;;
81211;SDS011;70686;52.494;13.420;2023-08-06T13:37:14;16.17;;;10.75;;
81211;SDS011;70686;52.494;13.420;2023-08-06T13:39:40;14.88;;;9.80;;
81211;SDS011;70686;52.494;13.420;2023-08-06T13:42:06;15.25;;;10.85;;
81211;SDS011;70686;52.494;13.420;2023-08-06T13:44:35;13.95;;;9.98;;
81211;SDS011;70686;52.494;13.420;2023-08-06T13:47:01;14.88;;;9.85;;
81211;SDS011;70686;52.494;13.420;2023-08-06T13:49:27;13.50;;;9.80;;
81211;SDS011;70686;52.494;13.420;2023-08-06T13:51:53;14.30;;;9.25;;
81211;SDS011;70686;52.494;13.420;2023-08-06T13:54:22;13.55;;;8.98;;
81211;SDS011;70686;52.494;13.420;2023-08-06T13:56:48;15.23;;;9.65;;
81211;SDS011;70686;52.494;13.420;2023-08-06T13:59:16;13.05;;;9.30;;
81211;SDS011;70686;52.494;13.420;2023-08-06T14:01:43;13.15;;;9.70;;
81211;SDS011;70686;52.494;13.420;2023-08-06T14:04:09;13.27;;;9.45;;
81211;SDS011;70686;52.494;13.420;2023-08-06T14:06:36;17.33;;;11.25;;
81211;SDS011;70686;52.494;13.420;2023-08-06T14:09:02;14.85;;;10.68;;
81211;SDS011;70686;52.494;13.420;2023-08-06T14:11:28;14.63;;;9.98;;
81211;SDS011;70686;52.494;13.420;2023-08-06T14:13:54;16.33;;;11.02;;
81211;SDS011;70686;52.494;13.420;2023-08-06T14:16:20;14.85;;;10.43;;
81211;SDS011;70686;52.494;13.420;2023-08-06T14:18:46;16.63;;;10.63;;
81211;SDS011;70686;52.494;13.420;2023-08-06T14:21:12;15.27;;;10.10;;
81211;SDS011;70686;52.494;13.420;2023-08-06T14:23:39;15.50;;;10.35;;
81211;SDS011;70686;52.494;13.420;2023-08-06T14:26:06;15.82;;;10.45;;
81211;SDS011;70686;52.494;13.420;2023-08-06T14:28:33;17.27;;;11.18;;
81211;SDS011;70686;52.494;13.420;2023-08-06T14:30:59;12.88;;;8.93;;
81211;SDS011;70686;52.494;13.420;2023-08-06T14:33:25;16.52;;;10.25;;
81211;SDS011;70686;52.494;13.420;2023-08-06T14:35:51;13.40;;;8.55;;